sensor_id;sensor_type;location;lat;lon;timestamp;P1;durP1;ratioP1;P2;durP2;ratioP2
75272;SDS011;63869;52.344;16.928;2023-04-03T00:02:06;5.90;;;2.10;;
75272;SDS011;63869;52.344;16.928;2023-04-03T00:04:31;5.90;;;1.90;;
75272;SDS011;63869;52.344;16.928;2023-04-03T00:06:57;4.97;;;2.20;;
75272;SDS011;63869;52.344;16.928;2023-04-03T00:09:22;6.13;;;1.90;;
75272;SDS011;63869;52.344;16.928;2023-04-03T00:11:47;5.03;;;1.90;;
75272;SDS011;63869;52.344;16.928;2023-04-03T00:14:13;4.43;;;2.20;;
75272;SDS011;63869;52.344;16.928;2023-04-03T00:16:38;5.67;;;2.07;;
75272;SDS011;63869;52.344;16.928;2023-04-03T00:19:03;5.25;;;2.10;;
75272;SDS011;63869;52.344;16.928;2023-04-03T00:21:29;5.03;;;1.90;;
75272;SDS011;63869;52.344;16.928;2023-04-03T00:23:54;6.23;;;2.10;;
75272;SDS011;63869;52.344;16.928;2023-04-03T00:26:20;7.30;;;2.30;;
75272;SDS011;63869;52.344;16.928;2023-04-03T00:28:45;4.70;;;1.90;;
75272;SDS011;63869;52.344;16.928;2023-04-03T00:31:11;6.00;;;2.00;;
75272;SDS011;63869;52.344;16.928;2023-04-03T00:33:39;6.18;;;2.22;;
75272;SDS011;63869;52.344;16.928;2023-04-03T00:36:06;8.38;;;2.25;;
75272;SDS011;63869;52.344;16.928;2023-04-03T00:38:33;7.22;;;2.00;;
75272;SDS011;63869;52.344;16.928;2023-04-03T00:40:59;7.13;;;2.00;;
75272;SDS011;63869;52.344;16.928;2023-04-03T00:43:25;5.45;;;1.90;;
75272;SDS011;63869;52.344;16.928;2023-04-03T00:45:54;6.63;;;2.20;;
75272;SDS011;63869;52.344;16.928;2023-04-03T00:48:22;6.95;;;2.20;;
75272;SDS011;63869;52.344;16.928;2023-04-03T00:50:55;6.90;;;2.10;;
75272;SDS011;63869;52.344;16.928;2023-04-03T00:53:22;4.70;;;2.17;;
75272;SDS011;63869;52.344;16.928;2023-04-03T00:55:52;5.63;;;2.10;;
75272;SDS011;63869;52.344;16.928;2023-04-03T00:58:20;5.93;;;2.08;;
75272;SDS011;63869;52.344;16.928;2023-04-03T01:00:50;5.22;;;1.98;;
75272;SDS011;63869;52.344;16.928;2023-04-03T01:03:22;3.97;;;1.83;;
75272;SDS011;63869;52.344;16.928;2023-04-03T01:05:48;5.37;;;2.10;;
75272;SDS011;63869;52.344;16.928;2023-04-03T01:08:13;6.07;;;2.37;;
75272;SDS011;63869;52.344;16.928;2023-04-03T01:10:39;4.17;;;1.80;;
75272;SDS011;63869;52.344;16.928;2023-04-03T01:13:17;6.13;;;2.00;;
75272;SDS011;63869;52.344;16.928;2023-04-03T01:15:45;5.90;;;2.10;;
75272;SDS011;63869;52.344;16.928;2023-04-03T01:18:11;5.57;;;2.00;;
75272;SDS011;63869;52.344;16.928;2023-04-03T01:26:08;7.40;;;2.00;;
75272;SDS011;63869;52.344;16.928;2023-04-03T01:28:35;5.65;;;2.20;;
75272;SDS011;63869;52.344;16.928;2023-04-03T01:33:42;6.10;;;2.05;;
75272;SDS011;63869;52.344;16.928;2023-04-03T01:36:08;5.33;;;1.93;;
75272;SDS011;63869;52.344;16.928;2023-04-03T01:38:35;6.20;;;1.90;;
75272;SDS011;63869;52.344;16.928;2023-04-03T01:41:00;5.53;;;2.00;;
75272;SDS011;63869;52.344;16.928;2023-04-03T01:43:26;7.40;;;2.17;;
75272;SDS011;63869;52.344;16.928;2023-04-03T01:45:51;5.80;;;1.90;;
75272;SDS011;63869;52.344;16.928;2023-04-03T01:48:19;4.47;;;2.00;;
75272;SDS011;63869;52.344;16.928;2023-04-03T01:50:45;4.70;;;1.90;;
75272;SDS011;63869;52.344;16.928;2023-04-03T01:53:10;6.37;;;2.07;;
75272;SDS011;63869;52.344;16.928;2023-04-03T01:55:36;6.03;;;2.00;;
75272;SDS011;63869;52.344;16.928;2023-04-03T01:58:01;5.60;;;2.00;;
75272;SDS011;63869;52.344;16.928;2023-04-03T02:00:26;5.43;;;1.90;;
75272;SDS011;63869;52.344;16.928;2023-04-03T02:02:52;4.60;;;1.70;;
75272;SDS011;63869;52.344;16.928;2023-04-03T02:05:17;5.47;;;1.80;;
75272;SDS011;63869;52.344;16.928;2023-04-03T02:07:43;5.87;;;2.00;;
75272;SDS011;63869;52.344;16.928;2023-04-03T02:10:08;5.40;;;1.80;;
75272;SDS011;63869;52.344;16.928;2023-04-03T02:12:34;5.77;;;1.80;;
75272;SDS011;63869;52.344;16.928;2023-04-03T02:14:59;5.10;;;1.90;;
75272;SDS011;63869;52.344;16.928;2023-04-03T02:17:25;7.78;;;2.50;;
75272;SDS011;63869;52.344;16.928;2023-04-03T02:19:51;7.17;;;1.90;;
75272;SDS011;63869;52.344;16.928;2023-04-03T02:22:16;5.30;;;2.00;;
75272;SDS011;63869;52.344;16.928;2023-04-03T02:24:42;5.40;;;1.88;;
75272;SDS011;63869;52.344;16.928;2023-04-03T02:27:07;4.33;;;1.80;;
75272;SDS011;63869;52.344;16.928;2023-04-03T02:29:32;5.20;;;1.90;;
75272;SDS011;63869;52.344;16.928;2023-04-03T02:31:58;5.27;;;1.87;;
75272;SDS011;63869;52.344;16.928;2023-04-03T02:34:23;5.47;;;2.07;;
75272;SDS011;63869;52.344;16.928;2023-04-03T02:36:48;5.60;;;2.07;;
75272;SDS011;63869;52.344;16.928;2023-04-03T02:39:14;5.83;;;2.00;;
75272;SDS011;63869;52.344;16.928;2023-04-03T02:41:39;4.80;;;2.00;;
75272;SDS011;63869;52.344;16.928;2023-04-03T02:44:05;6.10;;;2.00;;
75272;SDS011;63869;52.344;16.928;2023-04-03T02:46:32;3.97;;;1.75;;
75272;SDS011;63869;52.344;16.928;2023-04-03T02:48:58;6.13;;;1.90;;
75272;SDS011;63869;52.344;16.928;2023-04-03T02:51:23;5.70;;;2.00;;
75272;SDS011;63869;52.344;16.928;2023-04-03T02:53:49;5.45;;;1.77;;
75272;SDS011;63869;52.344;16.928;2023-04-03T02:56:15;5.95;;;2.22;;
75272;SDS011;63869;52.344;16.928;2023-04-03T02:58:42;4.57;;;1.70;;
75272;SDS011;63869;52.344;16.928;2023-04-03T03:01:07;5.13;;;1.90;;
75272;SDS011;63869;52.344;16.928;2023-04-03T03:03:32;5.13;;;1.80;;
75272;SDS011;63869;52.344;16.928;2023-04-03T03:06:02;6.50;;;1.80;;
75272;SDS011;63869;52.344;16.928;2023-04-03T03:08:28;4.35;;;1.80;;
75272;SDS011;63869;52.344;16.928;2023-04-03T03:10:54;7.13;;;1.97;;
75272;SDS011;63869;52.344;16.928;2023-04-03T03:13:19;6.43;;;2.13;;
75272;SDS011;63869;52.344;16.928;2023-04-03T03:15:45;5.97;;;2.20;;
75272;SDS011;63869;52.344;16.928;2023-04-03T03:18:10;6.43;;;2.20;;
75272;SDS011;63869;52.344;16.928;2023-04-03T03:20:36;5.00;;;2.13;;
75272;SDS011;63869;52.344;16.928;2023-04-03T03:23:03;6.30;;;2.20;;
75272;SDS011;63869;52.344;16.928;2023-04-03T03:25:28;5.80;;;2.17;;
75272;SDS011;63869;52.344;16.928;2023-04-03T03:27:53;4.83;;;2.00;;
75272;SDS011;63869;52.344;16.928;2023-04-03T03:30:18;5.37;;;2.33;;
75272;SDS011;63869;52.344;16.928;2023-04-03T03:32:44;4.70;;;2.45;;
75272;SDS011;63869;52.344;16.928;2023-04-03T03:35:09;8.90;;;3.22;;
75272;SDS011;63869;52.344;16.928;2023-04-03T03:37:35;7.60;;;3.17;;
75272;SDS011;63869;52.344;16.928;2023-04-03T03:40:00;9.63;;;4.03;;
75272;SDS011;63869;52.344;16.928;2023-04-03T03:42:25;9.13;;;3.67;;
75272;SDS011;63869;52.344;16.928;2023-04-03T03:44:51;6.82;;;3.30;;
75272;SDS011;63869;52.344;16.928;2023-04-03T03:47:17;8.25;;;3.25;;
75272;SDS011;63869;52.344;16.928;2023-04-03T03:49:42;6.10;;;2.88;;
75272;SDS011;63869;52.344;16.928;2023-04-03T03:52:07;7.03;;;2.57;;
75272;SDS011;63869;52.344;16.928;2023-04-03T03:54:37;7.57;;;2.60;;
75272;SDS011;63869;52.344;16.928;2023-04-03T03:57:03;6.70;;;2.40;;
75272;SDS011;63869;52.344;16.928;2023-04-03T03:59:28;5.70;;;2.50;;
75272;SDS011;63869;52.344;16.928;2023-04-03T04:01:53;6.60;;;2.47;;
75272;SDS011;63869;52.344;16.928;2023-04-03T04:04:19;6.47;;;2.40;;
75272;SDS011;63869;52.344;16.928;2023-04-03T04:06:45;7.57;;;2.43;;
75272;SDS011;63869;52.344;16.928;2023-04-03T04:09:10;7.37;;;2.50;;
75272;SDS011;63869;52.344;16.928;2023-04-03T04:11:36;9.53;;;2.57;;
75272;SDS011;63869;52.344;16.928;2023-04-03T04:14:01;7.70;;;2.47;;
75272;SDS011;63869;52.344;16.928;2023-04-03T04:16:26;6.90;;;2.30;;
75272;SDS011;63869;52.344;16.928;2023-04-03T04:18:52;8.40;;;2.83;;
75272;SDS011;63869;52.344;16.928;2023-04-03T04:21:17;7.83;;;2.60;;
75272;SDS011;63869;52.344;16.928;2023-04-03T04:23:43;8.55;;;2.50;;
75272;SDS011;63869;52.344;16.928;2023-04-03T04:26:08;7.57;;;2.20;;
75272;SDS011;63869;52.344;16.928;2023-04-03T04:28:34;5.22;;;2.10;;
75272;SDS011;63869;52.344;16.928;2023-04-03T04:30:59;6.13;;;2.30;;
75272;SDS011;63869;52.344;16.928;2023-04-03T04:33:24;7.90;;;2.50;;
75272;SDS011;63869;52.344;16.928;2023-04-03T04:35:51;9.27;;;2.75;;
75272;SDS011;63869;52.344;16.928;2023-04-03T04:38:16;8.23;;;2.80;;
75272;SDS011;63869;52.344;16.928;2023-04-03T04:40:42;8.43;;;3.70;;
75272;SDS011;63869;52.344;16.928;2023-04-03T04:43:07;8.45;;;3.75;;
75272;SDS011;63869;52.344;16.928;2023-04-03T04:45:33;7.80;;;3.20;;
75272;SDS011;63869;52.344;16.928;2023-04-03T04:47:58;7.27;;;2.93;;
75272;SDS011;63869;52.344;16.928;2023-04-03T04:50:23;7.27;;;2.97;;
75272;SDS011;63869;52.344;16.928;2023-04-03T04:52:49;7.90;;;2.80;;
75272;SDS011;63869;52.344;16.928;2023-04-03T04:55:14;7.17;;;2.47;;
75272;SDS011;63869;52.344;16.928;2023-04-03T04:57:40;5.87;;;2.40;;
75272;SDS011;63869;52.344;16.928;2023-04-03T05:00:05;6.07;;;2.50;;
75272;SDS011;63869;52.344;16.928;2023-04-03T05:02:31;7.63;;;2.50;;
75272;SDS011;63869;52.344;16.928;2023-04-03T05:04:56;5.73;;;2.30;;
75272;SDS011;63869;52.344;16.928;2023-04-03T05:07:22;5.67;;;1.93;;
75272;SDS011;63869;52.344;16.928;2023-04-03T05:09:47;5.05;;;1.90;;
75272;SDS011;63869;52.344;16.928;2023-04-03T05:12:13;4.68;;;1.90;;
75272;SDS011;63869;52.344;16.928;2023-04-03T05:14:43;6.00;;;2.10;;
75272;SDS011;63869;52.344;16.928;2023-04-03T05:17:09;5.72;;;2.10;;
75272;SDS011;63869;52.344;16.928;2023-04-03T05:19:35;6.38;;;2.20;;
75272;SDS011;63869;52.344;16.928;2023-04-03T05:22:00;6.87;;;2.23;;
75272;SDS011;63869;52.344;16.928;2023-04-03T05:24:25;6.07;;;2.10;;
75272;SDS011;63869;52.344;16.928;2023-04-03T05:26:51;7.30;;;2.17;;
75272;SDS011;63869;52.344;16.928;2023-04-03T05:29:16;5.17;;;2.00;;
75272;SDS011;63869;52.344;16.928;2023-04-03T05:31:41;8.40;;;2.33;;
75272;SDS011;63869;52.344;16.928;2023-04-03T05:34:09;6.97;;;2.90;;
75272;SDS011;63869;52.344;16.928;2023-04-03T05:36:35;6.65;;;2.50;;
75272;SDS011;63869;52.344;16.928;2023-04-03T05:39:00;8.53;;;2.80;;
75272;SDS011;63869;52.344;16.928;2023-04-03T05:41:25;5.77;;;2.30;;
75272;SDS011;63869;52.344;16.928;2023-04-03T05:43:51;6.13;;;1.90;;
75272;SDS011;63869;52.344;16.928;2023-04-03T05:46:18;6.27;;;2.50;;
75272;SDS011;63869;52.344;16.928;2023-04-03T05:48:45;6.45;;;2.30;;
75272;SDS011;63869;52.344;16.928;2023-04-03T05:51:15;6.28;;;2.67;;
75272;SDS011;63869;52.344;16.928;2023-04-03T05:53:47;6.32;;;2.58;;
75272;SDS011;63869;52.344;16.928;2023-04-03T05:56:13;6.18;;;2.47;;
75272;SDS011;63869;52.344;16.928;2023-04-03T05:58:38;6.77;;;2.60;;
75272;SDS011;63869;52.344;16.928;2023-04-03T06:01:04;6.40;;;2.30;;
75272;SDS011;63869;52.344;16.928;2023-04-03T06:03:30;6.47;;;2.60;;
75272;SDS011;63869;52.344;16.928;2023-04-03T06:05:56;5.63;;;2.17;;
75272;SDS011;63869;52.344;16.928;2023-04-03T06:08:21;8.57;;;2.70;;
75272;SDS011;63869;52.344;16.928;2023-04-03T06:10:47;5.40;;;2.00;;
75272;SDS011;63869;52.344;16.928;2023-04-03T06:13:12;6.93;;;2.30;;
75272;SDS011;63869;52.344;16.928;2023-04-03T06:15:38;6.70;;;2.05;;
75272;SDS011;63869;52.344;16.928;2023-04-03T06:18:05;6.97;;;2.20;;
75272;SDS011;63869;52.344;16.928;2023-04-03T06:20:31;5.85;;;2.30;;
75272;SDS011;63869;52.344;16.928;2023-04-03T06:22:57;5.85;;;2.30;;
75272;SDS011;63869;52.344;16.928;2023-04-03T06:25:22;8.27;;;2.50;;
75272;SDS011;63869;52.344;16.928;2023-04-03T06:27:48;7.67;;;2.50;;
75272;SDS011;63869;52.344;16.928;2023-04-03T06:30:13;8.43;;;2.87;;
75272;SDS011;63869;52.344;16.928;2023-04-03T06:32:39;7.43;;;2.88;;
75272;SDS011;63869;52.344;16.928;2023-04-03T06:35:05;8.57;;;2.77;;
75272;SDS011;63869;52.344;16.928;2023-04-03T06:37:31;6.72;;;2.40;;
75272;SDS011;63869;52.344;16.928;2023-04-03T06:39:57;6.88;;;2.67;;
75272;SDS011;63869;52.344;16.928;2023-04-03T06:42:23;6.25;;;2.42;;
75272;SDS011;63869;52.344;16.928;2023-04-03T06:44:49;5.03;;;2.13;;
75272;SDS011;63869;52.344;16.928;2023-04-03T06:47:14;5.07;;;2.10;;
75272;SDS011;63869;52.344;16.928;2023-04-03T06:49:41;6.33;;;2.37;;
75272;SDS011;63869;52.344;16.928;2023-04-03T06:52:07;7.95;;;2.83;;
75272;SDS011;63869;52.344;16.928;2023-04-03T06:54:32;6.70;;;2.55;;
75272;SDS011;63869;52.344;16.928;2023-04-03T06:56:58;8.30;;;3.13;;
75272;SDS011;63869;52.344;16.928;2023-04-03T06:59:25;6.55;;;2.45;;
75272;SDS011;63869;52.344;16.928;2023-04-03T07:01:50;6.20;;;2.80;;
75272;SDS011;63869;52.344;16.928;2023-04-03T07:04:16;6.57;;;2.47;;
75272;SDS011;63869;52.344;16.928;2023-04-03T07:06:41;4.93;;;2.10;;
75272;SDS011;63869;52.344;16.928;2023-04-03T07:09:07;9.33;;;3.17;;
75272;SDS011;63869;52.344;16.928;2023-04-03T07:11:34;7.78;;;3.10;;
75272;SDS011;63869;52.344;16.928;2023-04-03T07:14:01;7.57;;;2.70;;
75272;SDS011;63869;52.344;16.928;2023-04-03T07:16:27;7.90;;;2.63;;
75272;SDS011;63869;52.344;16.928;2023-04-03T07:18:52;5.43;;;2.03;;
75272;SDS011;63869;52.344;16.928;2023-04-03T07:21:18;7.03;;;2.20;;
75272;SDS011;63869;52.344;16.928;2023-04-03T07:23:43;8.23;;;3.15;;
75272;SDS011;63869;52.344;16.928;2023-04-03T07:26:08;15.07;;;5.90;;
75272;SDS011;63869;52.344;16.928;2023-04-03T07:28:34;12.47;;;4.43;;
75272;SDS011;63869;52.344;16.928;2023-04-03T07:31:00;10.90;;;3.00;;
75272;SDS011;63869;52.344;16.928;2023-04-03T07:33:28;6.45;;;2.60;;
75272;SDS011;63869;52.344;16.928;2023-04-03T07:35:53;9.70;;;3.00;;
75272;SDS011;63869;52.344;16.928;2023-04-03T07:38:19;7.05;;;1.92;;
75272;SDS011;63869;52.344;16.928;2023-04-03T07:40:45;5.68;;;1.75;;
75272;SDS011;63869;52.344;16.928;2023-04-03T07:43:13;4.70;;;1.30;;
75272;SDS011;63869;52.344;16.928;2023-04-03T07:45:40;2.92;;;1.55;;
75272;SDS011;63869;52.344;16.928;2023-04-03T07:48:07;5.10;;;1.67;;
75272;SDS011;63869;52.344;16.928;2023-04-03T07:50:32;5.30;;;1.60;;
75272;SDS011;63869;52.344;16.928;2023-04-03T07:52:58;3.60;;;1.27;;
75272;SDS011;63869;52.344;16.928;2023-04-03T07:55:24;2.15;;;1.20;;
75272;SDS011;63869;52.344;16.928;2023-04-03T07:57:50;4.13;;;1.52;;
75272;SDS011;63869;52.344;16.928;2023-04-03T08:00:15;6.25;;;2.30;;
75272;SDS011;63869;52.344;16.928;2023-04-03T08:02:42;6.18;;;1.80;;
75272;SDS011;63869;52.344;16.928;2023-04-03T08:05:09;6.22;;;2.20;;
75272;SDS011;63869;52.344;16.928;2023-04-03T08:07:36;5.30;;;1.48;;
75272;SDS011;63869;52.344;16.928;2023-04-03T08:10:02;3.25;;;1.20;;
75272;SDS011;63869;52.344;16.928;2023-04-03T08:12:28;5.18;;;2.03;;
75272;SDS011;63869;52.344;16.928;2023-04-03T08:14:54;2.80;;;1.50;;
75272;SDS011;63869;52.344;16.928;2023-04-03T08:17:20;9.40;;;1.85;;
75272;SDS011;63869;52.344;16.928;2023-04-03T08:19:46;4.80;;;1.67;;
75272;SDS011;63869;52.344;16.928;2023-04-03T08:22:11;6.97;;;1.40;;
75272;SDS011;63869;52.344;16.928;2023-04-03T08:24:38;1.60;;;1.10;;
75272;SDS011;63869;52.344;16.928;2023-04-03T08:27:03;3.60;;;1.60;;
75272;SDS011;63869;52.344;16.928;2023-04-03T08:29:29;3.00;;;1.60;;
75272;SDS011;63869;52.344;16.928;2023-04-03T08:31:54;5.43;;;1.67;;
75272;SDS011;63869;52.344;16.928;2023-04-03T08:34:20;2.35;;;1.50;;
75272;SDS011;63869;52.344;16.928;2023-04-03T08:36:45;3.38;;;1.50;;
75272;SDS011;63869;52.344;16.928;2023-04-03T08:39:11;2.42;;;1.30;;
75272;SDS011;63869;52.344;16.928;2023-04-03T08:41:41;2.70;;;1.48;;
75272;SDS011;63869;52.344;16.928;2023-04-03T08:44:21;2.58;;;1.63;;
75272;SDS011;63869;52.344;16.928;2023-04-03T08:49:43;3.22;;;1.40;;
75272;SDS011;63869;52.344;16.928;2023-04-03T08:52:20;5.13;;;1.50;;
75272;SDS011;63869;52.344;16.928;2023-04-03T08:55:06;3.60;;;1.65;;
75272;SDS011;63869;52.344;16.928;2023-04-03T08:57:43;2.03;;;1.45;;
75272;SDS011;63869;52.344;16.928;2023-04-03T09:02:49;3.20;;;1.40;;
75272;SDS011;63869;52.344;16.928;2023-04-03T09:05:20;4.03;;;1.50;;
75272;SDS011;63869;52.344;16.928;2023-04-03T09:08:03;2.40;;;1.42;;
75272;SDS011;63869;52.344;16.928;2023-04-03T09:10:37;6.43;;;1.45;;
75272;SDS011;63869;52.344;16.928;2023-04-03T09:13:06;3.90;;;2.05;;
75272;SDS011;63869;52.344;16.928;2023-04-03T09:15:37;2.22;;;1.25;;
75272;SDS011;63869;52.344;16.928;2023-04-03T09:21:15;3.75;;;1.83;;
75272;SDS011;63869;52.344;16.928;2023-04-03T09:23:47;7.47;;;2.22;;
75272;SDS011;63869;52.344;16.928;2023-04-03T09:28:54;6.05;;;1.83;;
75272;SDS011;63869;52.344;16.928;2023-04-03T09:31:25;4.68;;;1.75;;
75272;SDS011;63869;52.344;16.928;2023-04-03T09:33:55;3.17;;;1.70;;
75272;SDS011;63869;52.344;16.928;2023-04-03T09:36:39;1.95;;;1.40;;
75272;SDS011;63869;52.344;16.928;2023-04-03T09:39:14;3.33;;;1.70;;
75272;SDS011;63869;52.344;16.928;2023-04-03T09:41:42;3.25;;;1.23;;
75272;SDS011;63869;52.344;16.928;2023-04-03T09:44:25;2.45;;;1.50;;
75272;SDS011;63869;52.344;16.928;2023-04-03T09:46:52;3.22;;;1.40;;
75272;SDS011;63869;52.344;16.928;2023-04-03T09:49:18;3.13;;;1.58;;
75272;SDS011;63869;52.344;16.928;2023-04-03T09:51:44;3.80;;;1.70;;
75272;SDS011;63869;52.344;16.928;2023-04-03T09:57:07;3.30;;;1.75;;
75272;SDS011;63869;52.344;16.928;2023-04-03T09:59:35;4.05;;;2.00;;
75272;SDS011;63869;52.344;16.928;2023-04-03T10:02:04;2.97;;;1.70;;
75272;SDS011;63869;52.344;16.928;2023-04-03T10:04:41;5.97;;;1.70;;
75272;SDS011;63869;52.344;16.928;2023-04-03T10:09:58;3.78;;;1.70;;
75272;SDS011;63869;52.344;16.928;2023-04-03T10:12:26;2.78;;;1.48;;
75272;SDS011;63869;52.344;16.928;2023-04-03T10:14:56;5.53;;;1.90;;
75272;SDS011;63869;52.344;16.928;2023-04-03T10:17:37;4.15;;;1.60;;
75272;SDS011;63869;52.344;16.928;2023-04-03T10:20:20;2.00;;;1.40;;
